Time,TemperatureF,DewpointF,PressureIn,WindDirection,WindDirectionDegrees,WindSpeedMPH,WindSpeedGustMPH,Humidity,HourlyPrecipIn,Conditions,Clouds,dailyrainin,SolarRadiationWatts/m^2,SoftwareType,DateUTC
2013-04-22 00:01:00,50.0,29.0,-100.00,SSE,155,6.0,15.0,44,0.00,,,0.09,220.000000,,2013-04-22 00:01:00,
2013-04-22 00:11:00,50.0,29.0,-100.00,SSE,155,6.0,15.0,44,0.00,,,0.09,220.000000,,2013-04-22 00:11:00,
2013-04-22 01:42:00,45.0,30.0,-100.00,SE,136,5.0,10.0,56,-99.99,,,0.09,11.000000,,2013-04-22 01:42:00,
2013-04-22 01:52:00,45.0,30.0,-100.00,SE,136,5.0,10.0,56,-99.99,,,0.09,11.000000,,2013-04-22 01:52:00,
2013-04-22 02:02:00,45.0,30.0,-100.00,SE,136,5.0,10.0,56,-99.99,,,0.09,11.000000,,2013-04-22 02:02:00,
2013-04-22 02:11:00,45.0,30.0,-100.00,SE,136,5.0,10.0,56,-99.99,,,0.09,11.000000,,2013-04-22 02:11:00,
2013-04-22 02:32:00,43.0,29.0,-100.00,SE,134,5.0,11.0,58,0.00,,,0.09,0.000000,,2013-04-22 02:32:00,
2013-04-22 02:42:00,43.0,29.0,-100.00,SE,134,5.0,11.0,58,0.00,,,0.09,0.000000,,2013-04-22 02:42:00,
2013-04-22 02:52:00,43.0,29.0,-100.00,SE,134,5.0,11.0,58,0.00,,,0.09,0.000000,,2013-04-22 02:52:00,
2013-04-22 03:02:00,43.0,29.0,-100.00,SE,134,5.0,11.0,58,0.00,,,0.09,0.000000,,2013-04-22 03:02:00,
2013-04-22 03:11:00,43.0,29.0,-100.00,SE,134,5.0,11.0,58,0.00,,,0.09,0.000000,,2013-04-22 03:11:00,
2013-04-22 03:12:00,43.0,30.0,-100.00,SE,138,4.0,10.0,59,0.00,,,0.09,0.000000,,2013-04-22 03:12:00,
2013-04-22 03:33:00,43.0,30.0,-100.00,SE,138,4.0,10.0,59,0.00,,,0.09,0.000000,,2013-04-22 03:33:00,
2013-04-22 03:43:00,43.0,30.0,-100.00,SE,138,4.0,10.0,59,0.00,,,0.09,0.000000,,2013-04-22 03:43:00,
2013-04-22 03:52:00,43.0,30.0,-100.00,SE,138,4.0,10.0,59,0.00,,,0.09,0.000000,,2013-04-22 03:52:00,
2013-04-22 04:03:00,43.0,30.0,-100.00,SE,138,4.0,10.0,59,0.00,,,0.09,0.000000,,2013-04-22 04:03:00,
2013-04-22 04:12:00,44.0,31.0,-100.00,SSE,158,5.0,10.0,60,0.00,,,0.09,0.000000,,2013-04-22 04:12:00,
2013-04-22 04:33:00,44.0,31.0,-100.00,SSE,158,5.0,10.0,60,0.00,,,0.09,0.000000,,2013-04-22 04:33:00,
2013-04-22 04:43:00,44.0,31.0,-100.00,SSE,158,5.0,10.0,60,0.00,,,0.09,0.000000,,2013-04-22 04:43:00,
2013-04-22 04:53:00,44.0,31.0,-100.00,SSE,158,5.0,10.0,60,0.00,,,0.09,0.000000,,2013-04-22 04:53:00,
2013-04-22 05:02:00,44.0,31.0,-100.00,SSE,158,5.0,10.0,60,0.00,,,0.09,0.000000,,2013-04-22 05:02:00,
2013-04-22 05:12:00,46.0,33.0,-100.00,South,190,8.0,15.0,61,0.00,,,0.09,0.000000,,2013-04-22 05:12:00,
2013-04-22 05:42:00,46.0,33.0,-100.00,South,190,8.0,15.0,61,0.00,,,0.09,0.000000,,2013-04-22 05:42:00,
2013-04-22 05:52:00,46.0,33.0,-100.00,South,190,8.0,15.0,61,0.00,,,0.09,0.000000,,2013-04-22 05:52:00,
2013-04-22 06:02:00,46.0,33.0,-100.00,South,190,8.0,15.0,61,0.00,,,0.09,0.000000,,2013-04-22 06:02:00,
2013-04-22 06:12:00,46.0,33.0,-100.00,SSW,193,9.0,16.0,61,0.00,,,0.09,0.000000,,2013-04-22 06:12:00,
2013-04-22 06:32:00,46.0,33.0,-100.00,SSW,193,9.0,16.0,61,0.00,,,0.09,0.000000,,2013-04-22 06:32:00,
2013-04-22 06:42:00,46.0,33.0,-100.00,SSW,193,9.0,16.0,61,0.00,,,0.09,0.000000,,2013-04-22 06:42:00,
2013-04-22 06:52:00,46.0,33.0,-100.00,SSW,193,9.0,16.0,61,0.00,,,0.09,0.000000,,2013-04-22 06:52:00,
2013-04-22 07:01:00,46.0,33.0,-100.00,SSW,193,9.0,16.0,61,0.00,,,0.09,0.000000,,2013-04-22 07:01:00,
2013-04-22 07:32:00,46.0,33.0,-100.00,SSW,197,7.0,14.0,60,0.00,,,0.09,0.000000,,2013-04-22 07:32:00,
2013-04-22 07:42:00,46.0,33.0,-100.00,SSW,197,7.0,14.0,60,0.00,,,0.09,0.000000,,2013-04-22 07:42:00,
2013-04-22 07:52:00,46.0,33.0,-100.00,SSW,197,7.0,14.0,60,0.00,,,0.09,0.000000,,2013-04-22 07:52:00,
2013-04-22 08:02:00,46.0,33.0,-100.00,SSW,197,7.0,14.0,60,0.00,,,0.09,0.000000,,2013-04-22 08:02:00,
2013-04-22 08:11:00,46.0,33.0,-100.00,SSW,197,7.0,14.0,60,0.00,,,0.09,0.000000,,2013-04-22 08:11:00,
2013-04-22 08:32:00,46.0,33.0,-100.00,SSW,195,6.0,14.0,61,0.00,,,0.09,0.000000,,2013-04-22 08:32:00,
2013-04-22 08:42:00,46.0,33.0,-100.00,SSW,195,6.0,14.0,61,0.00,,,0.09,0.000000,,2013-04-22 08:42:00,
2013-04-22 08:53:00,46.0,33.0,-100.00,SSW,195,6.0,14.0,61,0.00,,,0.09,0.000000,,2013-04-22 08:53:00,
2013-04-22 09:01:00,46.0,33.0,-100.00,SSW,195,6.0,14.0,61,0.00,,,0.09,0.000000,,2013-04-22 09:01:00,
2013-04-22 09:11:00,46.0,33.0,-100.00,SSW,195,6.0,14.0,61,0.00,,,0.09,0.000000,,2013-04-22 09:11:00,
2013-04-22 09:12:00,45.0,34.0,-100.00,South,185,4.0,11.0,64,0.00,,,0.09,0.000000,,2013-04-22 09:12:00,
2013-04-22 09:33:00,45.0,34.0,-100.00,South,185,4.0,11.0,64,0.00,,,0.09,0.000000,,2013-04-22 09:33:00,
2013-04-22 09:42:00,45.0,34.0,-100.00,South,185,4.0,11.0,64,0.00,,,0.09,0.000000,,2013-04-22 09:42:00,
2013-04-22 09:52:00,45.0,34.0,-100.00,South,185,4.0,11.0,64,0.00,,,0.09,0.000000,,2013-04-22 09:52:00,
2013-04-22 10:03:00,45.0,34.0,-100.00,South,185,4.0,11.0,64,0.00,,,0.09,0.000000,,2013-04-22 10:03:00,
2013-04-22 10:12:00,44.0,33.0,-100.00,SSE,160,4.0,9.0,65,0.00,,,0.09,0.000000,,2013-04-22 10:12:00,
2013-04-22 10:32:00,44.0,33.0,-100.00,SSE,160,4.0,9.0,65,0.00,,,0.09,0.000000,,2013-04-22 10:32:00,
2013-04-22 10:42:00,44.0,33.0,-100.00,SSE,160,4.0,9.0,65,0.00,,,0.09,0.000000,,2013-04-22 10:42:00,
2013-04-22 10:52:00,44.0,33.0,-100.00,SSE,160,4.0,9.0,65,0.00,,,0.09,0.000000,,2013-04-22 10:52:00,
2013-04-22 11:02:00,44.0,33.0,-100.00,SSE,160,4.0,9.0,65,0.00,,,0.09,0.000000,,2013-04-22 11:02:00,
2013-04-22 11:12:00,41.0,38.0,-100.00,ESE,119,1.0,6.0,90,0.05,,,0.14,0.000000,,2013-04-22 11:12:00,
2013-04-22 11:42:00,41.0,38.0,-100.00,ESE,119,1.0,6.0,90,0.05,,,0.14,0.000000,,2013-04-22 11:42:00,
2013-04-22 11:52:00,41.0,38.0,-100.00,ESE,119,1.0,6.0,90,0.05,,,0.14,0.000000,,2013-04-22 11:52:00,
2013-04-22 12:02:00,41.0,38.0,-100.00,ESE,119,1.0,6.0,90,0.05,,,0.14,0.000000,,2013-04-22 12:02:00,
2013-04-22 13:42:00,42.0,40.0,-100.00,SSE,150,3.0,6.0,91,-99.99,,,0.19,43.000000,,2013-04-22 13:42:00,
2013-04-22 13:53:00,42.0,40.0,-100.00,SSE,150,3.0,6.0,91,-99.99,,,0.19,43.000000,,2013-04-22 13:53:00,
2013-04-22 14:02:00,42.0,40.0,-100.00,SSE,150,3.0,6.0,91,-99.99,,,0.19,43.000000,,2013-04-22 14:02:00,
2013-04-22 14:11:00,42.0,40.0,-100.00,SSE,150,3.0,6.0,91,-99.99,,,0.19,43.000000,,2013-04-22 14:11:00,
2013-04-22 14:12:00,44.0,39.0,-100.00,South,172,4.0,9.0,84,0.01,,,0.20,131.000000,,2013-04-22 14:12:00,
2013-04-22 14:33:00,44.0,39.0,-100.00,South,172,4.0,9.0,84,0.01,,,0.20,131.000000,,2013-04-22 14:33:00,
2013-04-22 14:42:00,44.0,39.0,-100.00,South,172,4.0,9.0,84,0.01,,,0.20,131.000000,,2013-04-22 14:42:00,
2013-04-22 14:52:00,44.0,39.0,-100.00,South,172,4.0,9.0,84,0.01,,,0.20,131.000000,,2013-04-22 14:52:00,
2013-04-22 15:02:00,44.0,39.0,-100.00,South,172,4.0,9.0,84,0.01,,,0.20,131.000000,,2013-04-22 15:02:00,
2013-04-22 15:12:00,46.0,40.0,-100.00,SSE,149,2.0,7.0,79,0.00,,,0.19,145.000000,,2013-04-22 15:12:00,
2013-04-22 15:33:00,46.0,40.0,-100.00,SSE,149,2.0,7.0,79,0.00,,,0.19,145.000000,,2013-04-22 15:33:00,
2013-04-22 15:43:00,46.0,40.0,-100.00,SSE,149,2.0,7.0,79,0.00,,,0.19,145.000000,,2013-04-22 15:43:00,
2013-04-22 15:53:00,46.0,40.0,-100.00,SSE,149,2.0,7.0,79,0.00,,,0.19,145.000000,,2013-04-22 15:53:00,
2013-04-22 16:03:00,46.0,40.0,-100.00,SSE,149,2.0,7.0,79,0.00,,,0.19,145.000000,,2013-04-22 16:03:00,
2013-04-22 16:12:00,49.0,39.0,-100.00,South,178,3.0,8.0,68,0.00,,,0.19,240.000000,,2013-04-22 16:12:00,
2013-04-22 16:33:00,49.0,39.0,-100.00,South,178,3.0,8.0,68,0.00,,,0.19,240.000000,,2013-04-22 16:33:00,
2013-04-22 16:42:00,49.0,39.0,-100.00,South,178,3.0,8.0,68,0.00,,,0.19,240.000000,,2013-04-22 16:42:00,
2013-04-22 16:52:00,49.0,39.0,-100.00,South,178,3.0,8.0,68,0.00,,,0.19,240.000000,,2013-04-22 16:52:00,
2013-04-22 17:02:00,49.0,39.0,-100.00,South,178,3.0,8.0,68,0.00,,,0.19,240.000000,,2013-04-22 17:02:00,
2013-04-22 17:12:00,54.0,39.0,-100.00,South,190,5.0,11.0,56,0.00,,,0.16,417.000000,,2013-04-22 17:12:00,
2013-04-22 17:32:00,54.0,39.0,-100.00,South,190,5.0,11.0,56,0.00,,,0.16,417.000000,,2013-04-22 17:32:00,
2013-04-22 17:43:00,54.0,39.0,-100.00,South,190,5.0,11.0,56,0.00,,,0.16,417.000000,,2013-04-22 17:43:00,
2013-04-22 17:52:00,54.0,39.0,-100.00,South,190,5.0,11.0,56,0.00,,,0.16,417.000000,,2013-04-22 17:52:00,
2013-04-22 18:01:00,54.0,39.0,-100.00,South,190,5.0,11.0,56,0.00,,,0.16,417.000000,,2013-04-22 18:01:00,
2013-04-22 18:12:00,53.0,40.0,-100.00,WSW,258,4.0,11.0,62,0.00,,,0.13,252.000000,,2013-04-22 18:12:00,
2013-04-22 18:42:00,53.0,40.0,-100.00,WSW,258,4.0,11.0,62,0.00,,,0.13,252.000000,,2013-04-22 18:42:00,
2013-04-22 18:52:00,53.0,40.0,-100.00,WSW,258,4.0,11.0,62,0.00,,,0.13,252.000000,,2013-04-22 18:52:00,
2013-04-22 19:01:00,53.0,40.0,-100.00,WSW,258,4.0,11.0,62,0.00,,,0.13,252.000000,,2013-04-22 19:01:00,
2013-04-22 19:42:00,57.0,41.0,-100.00,NW,320,3.0,8.0,55,0.00,,,0.13,410.000000,,2013-04-22 19:42:00,
2013-04-22 19:53:00,57.0,41.0,-100.00,NW,320,3.0,8.0,55,0.00,,,0.13,410.000000,,2013-04-22 19:53:00,
2013-04-22 20:02:00,57.0,41.0,-100.00,NW,320,3.0,8.0,55,0.00,,,0.13,410.000000,,2013-04-22 20:02:00,
2013-04-22 20:11:00,57.0,41.0,-100.00,NW,320,3.0,8.0,55,0.00,,,0.13,410.000000,,2013-04-22 20:11:00,
2013-04-22 20:42:00,60.0,41.0,-100.00,ENE,64,5.0,9.0,50,0.00,,,0.11,498.000000,,2013-04-22 20:42:00,
2013-04-22 20:52:00,60.0,41.0,-100.00,ENE,64,5.0,9.0,50,0.00,,,0.11,498.000000,,2013-04-22 20:52:00,
2013-04-22 21:02:00,60.0,41.0,-100.00,ENE,64,5.0,9.0,50,0.00,,,0.11,498.000000,,2013-04-22 21:02:00,
2013-04-22 21:11:00,60.0,41.0,-100.00,ENE,64,5.0,9.0,50,0.00,,,0.11,498.000000,,2013-04-22 21:11:00,
2013-04-22 21:12:00,62.0,39.0,-100.00,ESE,110,6.0,11.0,43,0.00,,,0.11,438.000000,,2013-04-22 21:12:00,
2013-04-22 21:33:00,62.0,39.0,-100.00,ESE,110,6.0,11.0,43,0.00,,,0.11,438.000000,,2013-04-22 21:33:00,
2013-04-22 21:43:00,62.0,39.0,-100.00,ESE,110,6.0,11.0,43,0.00,,,0.11,438.000000,,2013-04-22 21:43:00,
2013-04-22 21:53:00,62.0,39.0,-100.00,ESE,110,6.0,11.0,43,0.00,,,0.11,438.000000,,2013-04-22 21:53:00,
2013-04-22 22:03:00,62.0,39.0,-100.00,ESE,110,6.0,11.0,43,0.00,,,0.11,438.000000,,2013-04-22 22:03:00,
2013-04-22 22:42:00,63.0,38.0,-100.00,ESE,104,4.0,9.0,40,0.00,,,0.11,318.000000,,2013-04-22 22:42:00,
2013-04-22 22:52:00,63.0,38.0,-100.00,ESE,104,4.0,9.0,40,0.00,,,0.11,318.000000,,2013-04-22 22:52:00,
2013-04-22 23:02:00,63.0,38.0,-100.00,ESE,104,4.0,9.0,40,0.00,,,0.11,318.000000,,2013-04-22 23:02:00,
2013-04-22 23:11:00,63.0,38.0,-100.00,ESE,104,4.0,9.0,40,0.00,,,0.11,318.000000,,2013-04-22 23:11:00,
2013-04-22 23:12:00,63.0,40.0,-100.00,SE,124,4.0,12.0,42,0.00,,,0.11,176.000000,,2013-04-22 23:12:00,
2013-04-22 23:33:00,63.0,40.0,-100.00,SE,124,4.0,12.0,42,0.00,,,0.11,176.000000,,2013-04-22 23:33:00,
2013-04-22 23:42:00,63.0,40.0,-100.00,SE,124,4.0,12.0,42,0.00,,,0.11,176.000000,,2013-04-22 23:42:00,
2013-04-22 23:52:00,63.0,40.0,-100.00,SE,124,4.0,12.0,42,0.00,,,0.11,176.000000,,2013-04-22 23:52:00,